Time;durP1;ratioP1;P1;durP2;ratioP2;P2;SDS_P1;SDS_P2;PMS_P1;PMS_P2;Temp;Humidity;BMP_temperature;BMP_pressure;BME280_temperature;BME280_humidity;BME280_pressure;Samples;Min_cycle;Max_cycle;Signal;HPM_P1;HPM_P2
2021/12/05 00:24:15;;;;;;;11.27;2.83;;;;;;;4.68;82.74;98640.16;5017402;28;20045;-80
2021/12/05 00:26:48;;;;;;;4.50;2.28;;;;;;;4.69;82.54;98638.38;5001955;28;20469;-80
2021/12/05 00:31:56;;;;;;;6.70;2.25;;;;;;;4.70;82.79;98643.47;5005517;28;20041;-80
2021/12/05 00:34:58;;;;;;;3.90;1.58;;;;;;;4.69;82.79;98652.34;5017997;28;20397;-80
2021/12/05 00:48:01;;;;;;;4.72;1.58;;;;;;;4.68;82.67;98649.84;5027281;28;20049;-80
2021/12/05 00:51:05;;;;;;;5.88;1.50;;;;;;;4.67;82.80;98651.63;5011539;28;21134;-80
2021/12/05 01:10:04;;;;;;;6.88;2.30;;;;;;;4.69;82.99;98668.13;5051723;28;20068;-80
2021/12/05 01:13:00;;;;;;;5.45;2.00;;;;;;;4.70;82.89;98666.31;5005650;28;20054;-80
2021/12/05 01:15:29;;;;;;;7.20;2.78;;;;;;;4.69;83.10;98672.56;4963263;28;20073;-80
2021/12/05 01:18:09;;;;;;;5.45;2.13;;;;;;;4.71;83.01;98665.38;5014817;28;20500;-80
2021/12/05 01:20:45;;;;;;;6.03;1.92;;;;;;;4.70;82.88;98659.25;5023896;28;20052;-80
2021/12/05 01:23:26;;;;;;;6.40;1.50;;;;;;;4.72;83.05;98659.97;5006265;28;20049;-80
2021/12/05 01:26:09;;;;;;;5.05;1.77;;;;;;;4.72;83.07;98646.81;4987497;28;20065;-79
2021/12/05 01:34:02;;;;;;;5.18;1.23;;;;;;;4.73;83.11;98664.28;5004019;28;20077;-81
2021/12/05 01:36:47;;;;;;;7.30;1.88;;;;;;;4.73;83.06;98669.56;5007998;28;20057;-80
2021/12/05 01:53:10;;;;;;;5.40;2.60;;;;;;;4.74;82.93;98697.50;5021673;28;20124;-80
2021/12/05 02:01:11;;;;;;;6.55;2.33;;;;;;;4.71;82.90;98687.25;5023272;28;20137;-80
2021/12/05 02:34:04;;;;;;;9.35;2.20;;;;;;;4.65;82.24;98673.75;5023069;28;20046;-80
2021/12/05 02:39:20;;;;;;;9.00;2.45;;;;;;;4.64;82.25;98669.47;5007775;28;20103;-80
2021/12/05 02:41:49;;;;;;;5.75;1.90;;;;;;;4.63;82.17;98660.75;4985827;28;20049;-80
2021/12/05 02:44:23;;;;;;;5.80;2.10;;;;;;;4.64;82.16;98661.59;5020174;28;20837;-80
2021/12/05 02:47:00;;;;;;;8.30;2.40;;;;;;;4.61;81.80;98670.56;5019236;28;20050;-80
2021/12/05 02:49:30;;;;;;;6.55;1.58;;;;;;;4.63;81.89;98662.53;5022441;28;20058;-80
2021/12/05 02:52:03;;;;;;;11.38;2.15;;;;;;;4.63;81.83;98660.75;4980407;28;20061;-80
2021/12/05 02:54:37;;;;;;;6.80;2.35;;;;;;;4.61;81.99;98669.72;5015511;28;20446;-80
2021/12/05 02:57:06;;;;;;;8.55;2.47;;;;;;;4.62;81.95;98658.25;5018002;28;20057;-80
2021/12/05 03:02:13;;;;;;;5.10;1.80;;;;;;;4.61;81.75;98659.22;5020381;28;20048;-80
2021/12/05 03:04:48;;;;;;;8.15;2.10;;;;;;;4.59;81.62;98655.88;5033769;28;20129;-80
2021/12/05 03:07:19;;;;;;;7.10;1.48;;;;;;;4.59;81.58;98650.63;5023637;28;20053;-80
2021/12/05 03:09:46;;;;;;;8.07;1.52;;;;;;;4.58;81.46;98647.16;5008695;28;20049;-80
2021/12/05 03:12:18;;;;;;;12.02;2.92;;;;;;;4.59;81.54;98650.63;5021800;28;20456;-80
2021/12/05 03:14:47;;;;;;;10.57;1.98;;;;;;;4.58;81.61;98649.78;5022902;28;20045;-80
2021/12/05 03:17:15;;;;;;;4.47;1.50;;;;;;;4.58;81.51;98649.78;5040156;28;20046;-80
2021/12/05 03:19:43;;;;;;;6.78;2.17;;;;;;;4.58;81.42;98649.78;5038702;28;20045;-80
2021/12/05 03:22:10;;;;;;;13.63;2.55;;;;;;;4.57;81.46;98638.41;5032813;28;20621;-79
2021/12/05 03:24:37;;;;;;;5.22;1.98;;;;;;;4.56;81.47;98644.66;5022492;28;20554;-80
2021/12/05 03:27:05;;;;;;;9.85;1.88;;;;;;;4.57;81.85;98648.94;5014003;28;20405;-79
2021/12/05 03:29:37;;;;;;;7.35;1.73;;;;;;;4.59;81.41;98650.63;4998026;28;20085;-79
2021/12/05 03:32:04;;;;;;;8.57;1.75;;;;;;;4.59;81.62;98640.09;4995526;28;20107;-80
2021/12/05 03:34:30;;;;;;;7.22;1.52;;;;;;;4.60;81.53;98647.00;5001678;28;20500;-80
2021/12/05 03:37:01;;;;;;;13.57;4.05;;;;;;;4.60;81.43;98639.13;5021148;28;20076;-80
2021/12/05 03:39:31;;;;;;;7.70;1.88;;;;;;;4.60;81.55;98647.00;4998573;28;20050;-80
2021/12/05 03:41:58;;;;;;;6.53;1.80;;;;;;;4.60;81.55;98632.06;5000170;28;20049;-80
2021/12/05 03:44:27;;;;;;;4.82;1.30;;;;;;;4.60;81.61;98632.06;5007179;28;20045;-80
2021/12/05 03:46:56;;;;;;;7.13;2.00;;;;;;;4.61;81.80;98643.44;5006103;28;20043;-80
2021/12/05 03:49:24;;;;;;;4.63;1.45;;;;;;;4.60;81.51;98637.31;5002337;28;20054;-79
2021/12/05 03:51:59;;;;;;;7.47;1.63;;;;;;;4.57;81.32;98637.59;5054604;28;20103;-80
2021/12/05 03:54:26;;;;;;;5.60;1.10;;;;;;;4.60;81.62;98636.50;5032488;28;20042;-80
2021/12/05 03:56:56;;;;;;;4.35;1.63;;;;;;;4.60;81.29;98642.59;4999628;28;20053;-80
2021/12/05 03:59:27;;;;;;;5.53;1.27;;;;;;;4.60;81.32;98636.50;5000384;28;20409;-80
2021/12/05 04:01:57;;;;;;;3.22;1.27;;;;;;;4.58;81.38;98639.28;5040420;28;20059;-81
2021/12/05 04:04:24;;;;;;;5.28;1.23;;;;;;;4.59;81.50;98637.47;5033571;28;20069;-81
2021/12/05 04:06:51;;;;;;;5.03;1.42;;;;;;;4.58;81.59;98639.28;5023519;28;20637;-80
2021/12/05 04:09:19;;;;;;;1.95;1.25;;;;;;;4.59;81.53;98634.84;5044091;28;20041;-80
2021/12/05 04:11:58;;;;;;;3.03;1.40;;;;;;;4.57;81.26;98635.78;5039710;28;20042;-80
2021/12/05 04:14:35;;;;;;;3.85;1.30;;;;;;;4.55;81.47;98642.13;5040608;28;20042;-80
2021/12/05 04:17:04;;;;;;;3.55;1.20;;;;;;;4.56;81.40;98649.91;4990318;28;20599;-80
2021/12/05 04:19:31;;;;;;;3.85;0.82;;;;;;;4.56;81.39;98652.53;5024925;28;20144;-80
2021/12/05 04:22:02;;;;;;;3.72;1.20;;;;;;;4.56;81.52;98649.06;5006690;28;20128;-80
2021/12/05 04:24:31;;;;;;;2.83;1.27;;;;;;;4.59;81.41;98661.97;5010582;28;20469;-81
2021/12/05 04:26:59;;;;;;;3.15;1.40;;;;;;;4.59;81.48;98655.88;5043534;28;20419;-79
2021/12/05 04:29:26;;;;;;;6.47;1.60;;;;;;;4.60;81.32;98663.63;5038904;28;20049;-81
2021/12/05 04:31:54;;;;;;;2.78;1.00;;;;;;;4.59;81.31;98653.25;5022640;28;20049;-80
2021/12/05 04:34:21;;;;;;;5.10;1.10;;;;;;;4.57;81.24;98664.69;5015896;28;20046;-81
2021/12/05 04:36:48;;;;;;;4.35;1.30;;;;;;;4.59;81.44;98653.25;4987070;28;20069;-81
2021/12/05 04:39:15;;;;;;;4.82;1.17;;;;;;;4.59;81.59;98651.44;5024860;28;20127;-80
2021/12/05 04:41:43;;;;;;;1.75;0.95;;;;;;;4.59;81.36;98653.25;5031417;28;20182;-81
2021/12/05 04:44:10;;;;;;;3.35;0.82;;;;;;;4.59;81.58;98653.25;5038779;28;20061;-79
2021/12/05 04:46:40;;;;;;;3.05;1.33;;;;;;;4.58;81.52;98655.03;5008948;28;20532;-81
2021/12/05 04:49:07;;;;;;;3.70;1.15;;;;;;;4.59;81.45;98648.00;5043746;28;20037;-80
2021/12/05 04:51:39;;;;;;;4.10;1.20;;;;;;;4.57;81.40;98646.28;5022914;28;20127;-80
2021/12/05 04:54:10;;;;;;;2.72;1.15;;;;;;;4.56;81.48;98649.91;5052865;28;20050;-80
2021/12/05 04:56:38;;;;;;;3.15;1.23;;;;;;;4.57;81.52;98653.34;5032513;28;20042;-81
2021/12/05 04:59:13;;;;;;;4.78;2.15;;;;;;;4.57;81.61;98650.72;5007477;28;20084;-80
2021/12/05 05:01:42;;;;;;;6.32;1.75;;;;;;;4.56;81.74;98649.91;5042843;28;20424;-80
2021/12/05 05:06:52;;;;;;;5.18;1.30;;;;;;;4.56;81.57;98663.03;5015522;28;20061;-80
2021/12/05 05:09:19;;;;;;;7.15;1.55;;;;;;;4.57;81.71;98666.50;4989456;28;20046;-80
2021/12/05 05:11:46;;;;;;;4.13;1.30;;;;;;;4.58;81.44;98665.56;5011544;28;20092;-80
2021/12/05 05:14:14;;;;;;;3.67;1.30;;;;;;;4.57;81.58;98661.25;5002997;28;20045;-81
2021/12/05 05:16:42;;;;;;;3.50;1.77;;;;;;;4.57;81.66;98667.34;4966541;28;20155;-80
2021/12/05 05:19:10;;;;;;;4.28;1.50;;;;;;;4.58;81.66;98660.31;5006054;28;20670;-80
2021/12/05 05:21:46;;;;;;;5.00;1.45;;;;;;;4.57;81.72;98667.34;5005785;28;20042;-80
2021/12/05 05:30:06;;;;;;;5.53;2.05;;;;;;;4.56;81.70;98672.72;5003583;28;20045;-80
2021/12/05 05:41:34;;;;;;;6.47;2.38;;;;;;;4.54;81.72;98674.66;5003473;28;20056;-81
2021/12/05 05:44:30;;;;;;;4.55;1.45;;;;;;;4.55;81.62;98676.31;5005023;28;20444;-80
2021/12/05 05:46:37;;;;;;;4.15;1.77;;;;;;;4.54;81.62;98680.72;4994674;28;20113;-80
2021/12/05 05:49:20;;;;;;;2.97;1.77;;;;;;;4.54;81.59;98675.47;5025741;28;20041;-80
2021/12/05 05:51:47;;;;;;;4.22;1.77;;;;;;;4.53;81.50;98684.34;5037114;28;20045;-80
2021/12/05 05:54:14;;;;;;;6.85;1.83;;;;;;;4.54;81.71;98679.91;5024742;28;20041;-81
2021/12/05 05:56:43;;;;;;;8.05;1.63;;;;;;;4.55;81.79;98678.94;5022907;28;20404;-80
2021/12/05 05:59:27;;;;;;;6.68;1.80;;;;;;;4.55;81.69;98692.06;5022129;28;20050;-80
2021/12/05 06:04:21;;;;;;;3.15;1.60;;;;;;;4.55;81.65;98685.06;5025365;28;20053;-80
2021/12/05 06:06:50;;;;;;;6.90;1.42;;;;;;;4.53;81.55;98686.97;5024573;28;20058;-80
2021/12/05 06:09:17;;;;;;;5.28;1.58;;;;;;;4.55;81.67;98687.69;4977664;28;20053;-79
2021/12/05 06:11:43;;;;;;;2.42;1.60;;;;;;;4.56;81.53;98688.50;5007458;28;20049;-80
2021/12/05 06:14:11;;;;;;;6.93;2.08;;;;;;;4.56;81.70;98680.63;5001304;28;20041;-80
2021/12/05 06:16:38;;;;;;;7.35;1.80;;;;;;;4.55;81.90;98685.06;4997051;28;20046;-80
2021/12/05 06:19:05;;;;;;;5.18;1.75;;;;;;;4.56;81.77;98685.88;4979178;28;20052;-80
2021/12/05 06:21:31;;;;;;;3.97;1.90;;;;;;;4.55;81.54;98687.69;5003651;28;20057;-80
2021/12/05 06:23:58;;;;;;;2.92;0.88;;;;;;;4.55;81.70;98684.19;5021193;28;20048;-79
2021/12/05 06:26:25;;;;;;;6.28;1.30;;;;;;;4.56;81.83;98685.88;5019189;28;20049;-80
2021/12/05 06:29:19;;;;;;;3.03;1.55;;;;;;;4.54;81.55;98691.25;5023926;28;20042;-80
2021/12/05 06:47:57;;;;;;;6.30;2.10;;;;;;;4.52;81.74;98692.34;5019788;28;20485;-80
2021/12/05 06:50:23;;;;;;;5.30;1.55;;;;;;;4.52;81.64;98693.16;5020173;28;20060;-80
2021/12/05 06:52:51;;;;;;;3.75;2.00;;;;;;;4.53;81.72;98704.53;5025256;28;20052;-79
2021/12/05 06:55:18;;;;;;;4.75;2.40;;;;;;;4.52;81.82;98703.69;5023048;28;20060;-81
2021/12/05 06:57:46;;;;;;;5.78;2.25;;;;;;;4.53;81.64;98707.16;5017815;28;20045;-79
2021/12/05 07:00:22;;;;;;;6.45;2.30;;;;;;;4.47;81.52;98705.84;4974764;28;20460;-79
2021/12/05 07:02:49;;;;;;;5.43;1.70;;;;;;;4.52;81.54;98708.94;5036898;28;20045;-79
2021/12/05 07:05:42;;;;;;;7.93;2.47;;;;;;;4.50;81.70;98710.88;5035213;28;20064;-79
2021/12/05 07:08:12;;;;;;;5.13;2.30;;;;;;;4.49;81.89;98709.19;5001044;28;20053;-80
2021/12/05 07:10:51;;;;;;;5.57;2.00;;;;;;;4.51;81.88;98711.72;5022400;28;20068;-79
2021/12/05 07:15:54;;;;;;;3.05;1.50;;;;;;;4.49;81.72;98726.75;5023864;28;20504;-79
2021/12/05 07:21:22;;;;;;;6.07;2.38;;;;;;;4.46;81.45;98717.34;5014479;28;20504;-80
2021/12/05 07:40:16;;;;;;;12.93;4.25;;;;;;;4.48;81.73;98720.69;5029950;28;20060;-80
2021/12/05 07:42:49;;;;;;;7.90;2.40;;;;;;;4.45;81.45;98730.59;5038373;28;20037;-80
2021/12/05 07:45:26;;;;;;;4.60;1.48;;;;;;;4.42;81.63;98734.31;5018874;28;20057;-80
2021/12/05 07:47:54;;;;;;;4.75;2.05;;;;;;;4.46;81.76;98743.63;4957851;28;20049;-79
2021/12/05 07:50:33;;;;;;;4.32;1.73;;;;;;;4.47;81.85;98737.38;4970988;28;20042;-79
2021/12/05 07:53:07;;;;;;;5.53;1.95;;;;;;;4.46;81.87;98737.53;4991621;28;20042;-79
2021/12/05 07:55:40;;;;;;;;;;;;;;;4.30;81.93;98745.78;4962156;28;20562;-80
2021/12/05 07:58:27;;;;;;;5.17;2.63;;;;;;;4.41;81.67;98740.53;5011576;28;20369;-79
2021/12/05 08:15:59;;;;;;;7.32;3.08;;;;;;;4.43;81.66;98736.00;5021565;28;20052;-80
2021/12/05 08:17:51;;;;;;;7.70;3.42;;;;;;;4.43;81.56;98737.78;4989743;28;20042;-80
2021/12/05 08:20:23;;;;;;;6.95;3.03;;;;;;;4.43;81.49;98745.69;5039482;28;20041;-79
2021/12/05 08:22:50;;;;;;;10.23;4.28;;;;;;;4.45;81.44;98743.72;5017670;28;20103;-80
2021/12/05 08:25:19;;;;;;;9.13;5.20;;;;;;;4.46;81.57;98751.50;5017145;28;20088;-80
2021/12/05 08:27:53;;;;;;;6.55;3.42;;;;;;;4.48;81.47;98748.78;5036419;28;20551;-79
2021/12/05 08:30:33;;;;;;;9.63;3.70;;;;;;;4.49;81.53;98742.53;5023488;28;20037;-80
2021/12/05 08:35:47;;;;;;;10.35;5.28;;;;;;;4.49;81.70;98751.25;4999651;28;22816;-79
2021/12/05 09:25:16;;;;;;;6.30;4.00;;;;;;;4.64;81.73;98764.97;5036523;28;20049;-79
2021/12/05 09:38:50;;;;;;;9.02;3.67;;;;;;;4.70;81.84;98759.19;5023862;28;20048;-79
2021/12/05 10:11:27;;;;;;;4.93;2.20;;;;;;;4.82;82.27;98748.66;5022578;28;20057;-79
2021/12/05 10:16:55;;;;;;;9.20;2.55;;;;;;;4.77;81.99;98744.59;5023457;28;20117;-80
2021/12/05 10:20:04;;;;;;;8.00;2.78;;;;;;;4.83;82.00;98737.97;4984661;28;20644;-80
2021/12/05 10:34:34;;;;;;;6.05;2.38;;;;;;;4.79;81.85;98741.84;5012969;28;20059;-81
2021/12/05 10:37:28;;;;;;;9.60;2.78;;;;;;;4.77;82.22;98743.75;4947685;28;20065;-79
2021/12/05 10:40:08;;;;;;;;;;;;;;;4.70;82.69;98739.94;4992915;28;20038;-79
2021/12/05 10:42:46;;;;;;;10.05;3.28;;;;;;;4.78;82.22;98730.50;5055469;28;19921;-79
2021/12/05 10:45:18;;;;;;;7.05;2.88;;;;;;;4.83;82.41;98727.47;5035090;28;20069;-80
2021/12/05 10:47:48;;;;;;;9.60;2.63;;;;;;;4.89;82.40;98728.78;5023775;28;20059;-80
2021/12/05 10:50:43;;;;;;;7.07;3.72;;;;;;;4.84;82.38;98729.16;5019149;28;20050;-79
2021/12/05 10:53:19;;;;;;;7.50;3.40;;;;;;;4.88;82.14;98724.44;5000039;28;20068;-79
2021/12/05 10:55:54;;;;;;;9.48;3.88;;;;;;;4.88;82.38;98727.09;5022564;28;20129;-80
2021/12/05 10:58:23;;;;;;;9.90;4.38;;;;;;;4.92;82.29;98724.06;5019262;28;20041;-79
2021/12/05 11:01:03;;;;;;;14.60;5.63;;;;;;;4.87;82.43;98725.44;5024323;28;20374;-79
2021/12/05 11:03:34;;;;;;;10.82;4.90;;;;;;;4.95;82.85;98728.25;5024540;28;20041;-79
2021/12/05 11:06:02;;;;;;;8.80;3.40;;;;;;;4.96;82.62;98730.75;5016689;28;20046;-80
2021/12/05 11:08:37;;;;;;;5.68;2.65;;;;;;;4.93;82.42;98731.00;5019173;28;20440;-80
2021/12/05 11:11:12;;;;;;;8.05;2.42;;;;;;;4.98;82.56;98728.00;5050546;28;20064;-79
2021/12/05 11:13:41;;;;;;;6.60;2.15;;;;;;;4.96;82.46;98717.63;5006350;28;20053;-80
2021/12/05 11:16:44;;;;;;;7.63;2.85;;;;;;;4.89;82.39;98716.44;5032487;28;20702;-80
2021/12/05 11:19:18;;;;;;;5.07;2.17;;;;;;;4.95;82.48;98710.66;4983006;28;22286;-79
2021/12/05 11:21:54;;;;;;;9.15;2.63;;;;;;;4.98;82.53;98710.41;5024065;28;20055;-80
2021/12/05 11:24:33;;;;;;;8.05;2.95;;;;;;;4.95;82.47;98709.84;5032337;28;20034;-80
2021/12/05 11:27:12;;;;;;;5.43;2.88;;;;;;;4.92;82.87;98704.84;5020073;28;20045;-79
2021/12/05 11:29:54;;;;;;;9.40;3.53;;;;;;;4.93;82.74;98709.13;5030985;28;20405;-79
2021/12/05 11:32:33;;;;;;;10.00;3.03;;;;;;;4.95;82.65;98710.66;4999025;28;20478;-80
2021/12/05 11:35:21;;;;;;;4.65;2.70;;;;;;;4.94;82.64;98698.47;4992176;28;20045;-80
2021/12/05 11:37:50;;;;;;;7.35;2.00;;;;;;;5.04;82.51;98703.81;4985637;28;20046;-80
2021/12/05 11:40:17;;;;;;;4.63;2.13;;;;;;;4.97;82.33;98708.75;5005116;28;20049;-79
2021/12/05 11:43:01;;;;;;;6.80;2.60;;;;;;;4.97;82.15;98724.53;5038509;28;20053;-80
2021/12/05 11:45:30;;;;;;;3.65;1.70;;;;;;;5.02;82.02;98734.69;5015837;28;20050;-79
2021/12/05 11:47:58;;;;;;;4.47;1.85;;;;;;;5.05;81.69;98738.84;5006670;28;20500;-80
2021/12/05 11:50:37;;;;;;;6.22;1.48;;;;;;;4.99;81.86;98737.56;5018311;28;20046;-80
2021/12/05 11:53:03;;;;;;;3.90;1.25;;;;;;;5.08;82.02;98731.53;5049685;28;20497;-80
2021/12/05 11:55:32;;;;;;;2.80;1.25;;;;;;;5.14;81.95;98730.16;5019897;28;20056;-79
2021/12/05 11:58:00;;;;;;;2.55;1.10;;;;;;;5.18;81.91;98721.06;5023879;28;20044;-80
2021/12/05 12:00:28;;;;;;;8.25;1.13;;;;;;;5.20;81.90;98719.16;5011544;28;20064;-80
2021/12/05 12:02:55;;;;;;;2.67;1.15;;;;;;;5.21;81.55;98707.63;5021514;28;20045;-80
2021/12/05 12:05:33;;;;;;;1.88;1.63;;;;;;;5.19;81.40;98710.44;5019960;28;20094;-80
2021/12/05 12:08:12;;;;;;;1.90;1.10;;;;;;;5.25;81.41;98713.50;5013279;28;20141;-80
2021/12/05 12:10:57;;;;;;;2.60;1.30;;;;;;;5.28;81.33;98703.53;5000979;28;20061;-80
2021/12/05 12:13:29;;;;;;;2.75;0.95;;;;;;;5.32;80.75;98704.97;5000250;28;20073;-79
2021/12/05 12:16:00;;;;;;;3.03;1.52;;;;;;;5.33;80.80;98698.72;5026583;28;20046;-80
2021/12/05 12:18:32;;;;;;;1.52;1.02;;;;;;;5.32;81.01;98699.69;5021935;28;20061;-80
2021/12/05 12:21:26;;;;;;;1.38;0.82;;;;;;;5.24;80.85;98694.25;5036602;28;20449;-80
2021/12/05 12:23:56;;;;;;;1.65;0.88;;;;;;;5.30;80.92;98693.72;5004046;28;20112;-79
2021/12/05 12:26:24;;;;;;;2.03;1.30;;;;;;;5.36;80.85;98702.88;5038558;28;20684;-79
2021/12/05 12:28:53;;;;;;;1.27;0.75;;;;;;;5.28;80.22;98698.28;5021437;28;20058;-80
2021/12/05 12:31:32;;;;;;;1.70;0.90;;;;;;;5.21;80.57;98700.56;5038769;28;20046;-79
2021/12/05 12:34:06;;;;;;;2.28;1.15;;;;;;;5.25;80.89;98705.59;5001703;28;20121;-80
2021/12/05 12:36:47;;;;;;;6.18;1.73;;;;;;;5.18;80.57;98700.84;5022208;28;20540;-79
2021/12/05 12:39:17;;;;;;;2.67;1.10;;;;;;;5.21;80.32;98712.91;5019526;28;20045;-80
2021/12/05 12:42:05;;;;;;;2.75;1.02;;;;;;;5.09;80.41;98706.91;5028116;28;20041;-80
2021/12/05 12:44:33;;;;;;;4.97;1.17;;;;;;;5.18;80.57;98713.16;5009685;28;20052;-80
2021/12/05 12:47:03;;;;;;;4.47;2.13;;;;;;;5.19;80.83;98717.47;5026911;28;20038;-80
2021/12/05 12:49:33;;;;;;;7.82;2.60;;;;;;;5.19;80.77;98718.31;5027592;28;20049;-79
2021/12/05 12:52:08;;;;;;;3.53;1.40;;;;;;;5.18;80.44;98724.53;5027929;28;20042;-81
2021/12/05 12:54:37;;;;;;;3.08;1.48;;;;;;;5.21;80.40;98726.91;5009738;28;20052;-81
2021/12/05 12:57:26;;;;;;;3.58;1.48;;;;;;;5.20;80.13;98716.50;5025554;28;20045;-81
2021/12/05 12:59:56;;;;;;;4.63;1.30;;;;;;;5.23;80.79;98716.25;5000353;28;20052;-81
2021/12/05 13:11:03;;;;;;;2.40;1.10;;;;;;;5.19;80.85;98718.31;5004498;28;20045;-81
2021/12/05 13:13:32;;;;;;;3.38;1.00;;;;;;;5.22;81.37;98722.50;5026167;28;20041;-80
2021/12/05 13:16:12;;;;;;;3.85;1.00;;;;;;;5.16;80.88;98726.44;5038991;28;20041;-81
2021/12/05 13:18:40;;;;;;;2.70;1.20;;;;;;;5.19;80.77;98722.72;5026631;28;20071;-81
2021/12/05 13:21:10;;;;;;;2.10;1.48;;;;;;;5.19;80.93;98727.97;5024828;28;20061;-80
2021/12/05 13:23:50;;;;;;;8.35;3.53;;;;;;;5.16;80.60;98730.88;5027760;28;20055;-81
2021/12/05 13:26:36;;;;;;;7.47;3.17;;;;;;;5.20;80.82;98733.13;5005214;28;20056;-80
2021/12/05 13:29:21;;;;;;;8.15;3.22;;;;;;;5.16;80.78;98731.72;5017221;28;20046;-79
2021/12/05 13:32:03;;;;;;;8.00;3.40;;;;;;;5.14;80.91;98727.53;5006983;28;20658;-80
2021/12/05 13:34:45;;;;;;;6.97;2.90;;;;;;;5.21;81.15;98729.53;5023102;28;20498;-80
2021/12/05 13:37:13;;;;;;;9.80;3.40;;;;;;;5.22;81.11;98727.75;5006875;28;20044;-81
2021/12/05 13:40:04;;;;;;;6.60;2.95;;;;;;;5.20;80.91;98735.75;5028491;28;20049;-78
2021/12/05 13:42:45;;;;;;;3.30;2.10;;;;;;;5.19;80.88;98741.16;5016780;28;20396;-80
2021/12/05 13:45:25;;;;;;;4.43;1.90;;;;;;;5.22;80.92;98739.09;5057545;28;20084;-80
2021/12/05 13:47:52;;;;;;;4.25;1.50;;;;;;;5.21;81.02;98745.31;5040232;28;20053;-80
2021/12/05 13:50:18;;;;;;;7.78;1.60;;;;;;;5.23;81.08;98745.19;5026394;28;20042;-80
2021/12/05 13:52:59;;;;;;;2.67;1.65;;;;;;;5.20;80.85;98748.91;5023222;28;20037;-79
2021/12/05 13:55:44;;;;;;;3.13;1.45;;;;;;;5.16;80.97;98750.13;5038132;28;20396;-79
2021/12/05 13:58:32;;;;;;;2.95;1.20;;;;;;;5.15;81.11;98758.16;5042933;28;20060;-80
2021/12/05 14:01:31;;;;;;;4.15;2.00;;;;;;;5.13;81.14;98760.91;5002475;28;20061;-79
2021/12/05 14:04:10;;;;;;;3.50;1.75;;;;;;;5.23;81.02;98766.25;4988854;28;20038;-80
2021/12/05 14:06:39;;;;;;;2.55;1.67;;;;;;;5.23;81.26;98772.34;5006003;28;20045;-80
2021/12/05 14:09:29;;;;;;;2.38;1.45;;;;;;;5.19;81.42;98770.94;5024817;28;20046;-79
2021/12/05 14:12:17;;;;;;;4.93;1.98;;;;;;;5.17;81.27;98767.59;5006588;28;20056;-79
2021/12/05 14:14:46;;;;;;;2.38;1.25;;;;;;;5.26;81.48;98762.53;5017350;28;20041;-80
2021/12/05 14:17:34;;;;;;;6.00;1.92;;;;;;;5.19;81.16;98767.47;5021319;28;20048;-80
2021/12/05 14:20:12;;;;;;;3.75;1.30;;;;;;;5.25;81.03;98764.34;5053611;28;20038;-80
2021/12/05 14:22:40;;;;;;;3.40;1.65;;;;;;;5.28;81.26;98773.78;5023402;28;20059;-80
2021/12/05 14:25:12;;;;;;;2.92;1.60;;;;;;;5.29;81.33;98775.44;5024746;28;20069;-79
2021/12/05 14:27:45;;;;;;;4.88;1.70;;;;;;;5.28;81.41;98773.78;5021951;28;20051;-80
2021/12/05 14:30:14;;;;;;;4.57;1.90;;;;;;;5.30;81.35;98783.22;5028731;28;20064;-80
2021/12/05 14:32:43;;;;;;;4.70;1.52;;;;;;;5.31;81.18;98781.41;5024398;28;20061;-81
2021/12/05 14:35:14;;;;;;;3.75;1.90;;;;;;;5.31;81.21;98784.03;5023311;28;20170;-81
2021/12/05 14:37:43;;;;;;;2.58;1.40;;;;;;;5.33;81.30;98788.22;5023626;28;20069;-80
2021/12/05 14:40:13;;;;;;;7.35;1.55;;;;;;;5.33;81.28;98787.38;5025331;28;20465;-80
2021/12/05 14:42:44;;;;;;;2.35;1.38;;;;;;;5.34;81.23;98786.41;5024116;28;20485;-81
2021/12/05 14:45:17;;;;;;;3.63;1.55;;;;;;;5.31;81.08;98787.50;5006073;28;20049;-80
2021/12/05 14:47:45;;;;;;;3.05;1.38;;;;;;;5.33;81.27;98788.22;5019535;28;20480;-80
2021/12/05 14:50:18;;;;;;;4.65;1.65;;;;;;;5.31;80.98;98787.50;5035720;28;20065;-80
2021/12/05 14:52:51;;;;;;;3.78;1.30;;;;;;;5.29;81.09;98794.72;5036774;28;20037;-80
2021/12/05 14:55:20;;;;;;;2.47;1.42;;;;;;;5.33;81.13;98790.00;5017765;28;20045;-80
2021/12/05 14:57:52;;;;;;;3.28;1.70;;;;;;;5.30;80.75;98803.44;5023498;28;20052;-80
2021/12/05 15:00:31;;;;;;;5.75;1.40;;;;;;;5.27;80.75;98808.97;5024022;28;20099;-80
2021/12/05 15:03:01;;;;;;;4.93;1.55;;;;;;;5.29;80.90;98813.13;5008300;28;20099;-81
2021/12/05 15:05:28;;;;;;;1.67;1.30;;;;;;;5.29;80.78;98814.91;5019470;28;20081;-81
2021/12/05 15:08:11;;;;;;;3.17;1.60;;;;;;;5.21;80.44;98812.91;5011783;28;20037;-81
2021/12/05 15:10:44;;;;;;;4.47;1.83;;;;;;;5.24;80.30;98825.84;5023870;28;20519;-81
2021/12/05 15:13:12;;;;;;;2.55;1.75;;;;;;;5.24;80.76;98815.31;5001176;28;20045;-80
2021/12/05 15:15:39;;;;;;;4.32;1.95;;;;;;;5.22;80.58;98825.97;5009557;28;20111;-80
2021/12/05 15:18:13;;;;;;;2.85;1.88;;;;;;;5.19;80.19;98835.88;5021945;28;20072;-80
2021/12/05 15:20:41;;;;;;;6.85;2.78;;;;;;;5.20;80.33;98837.56;5022308;28;20045;-81
2021/12/05 15:23:10;;;;;;;7.57;2.50;;;;;;;5.19;80.08;98839.38;5021500;28;20044;-80
2021/12/05 15:25:38;;;;;;;5.47;2.65;;;;;;;5.19;80.40;98843.78;5021798;28;20048;-80
2021/12/05 15:28:08;;;;;;;6.57;2.60;;;;;;;5.17;80.42;98845.72;5021522;28;20084;-79
2021/12/05 15:30:44;;;;;;;6.28;2.85;;;;;;;5.11;80.07;98852.31;5041811;28;20392;-80
2021/12/05 15:33:14;;;;;;;4.93;2.38;;;;;;;5.14;80.02;98857.34;5025785;28;20044;-80
2021/12/05 15:35:43;;;;;;;3.05;2.20;;;;;;;5.14;80.08;98853.84;5003901;28;20048;-82
2021/12/05 15:38:18;;;;;;;6.80;2.92;;;;;;;5.10;79.89;98860.34;5019235;28;20042;-82
2021/12/05 15:40:46;;;;;;;6.25;3.67;;;;;;;5.13;80.21;98854.81;5016792;28;20056;-83
2021/12/05 15:43:16;;;;;;;4.88;2.83;;;;;;;5.12;79.99;98858.44;5021863;28;20673;-82
2021/12/05 15:45:45;;;;;;;11.40;3.80;;;;;;;5.12;80.09;98858.44;5036286;28;20126;-81
2021/12/05 15:48:21;;;;;;;6.35;3.13;;;;;;;5.06;79.92;98858.91;4989101;28;20057;-81
2021/12/05 15:50:50;;;;;;;7.28;3.08;;;;;;;5.11;79.89;98867.25;5012672;28;20048;-81
2021/12/05 15:53:20;;;;;;;4.95;3.10;;;;;;;5.08;79.69;98863.09;5024503;28;20543;-82
2021/12/05 15:55:50;;;;;;;7.40;3.88;;;;;;;5.09;79.73;98871.81;5018607;28;20759;-82
2021/12/05 15:58:30;;;;;;;6.00;3.67;;;;;;;5.04;79.43;98877.47;5005735;28;20049;-82
2021/12/05 16:01:05;;;;;;;7.40;4.07;;;;;;;5.02;79.36;98876.75;4953195;28;20498;-83
2021/12/05 16:03:42;;;;;;;5.50;3.97;;;;;;;5.00;79.18;98881.28;4991405;28;20086;-81
2021/12/05 16:06:13;;;;;;;5.53;3.65;;;;;;;5.04;79.65;98879.25;4986055;28;20058;-80
2021/12/05 16:08:41;;;;;;;6.78;4.30;;;;;;;5.04;79.57;98887.13;4947709;28;20046;-81
2021/12/05 16:11:15;;;;;;;6.35;3.58;;;;;;;5.00;79.26;98881.28;4939923;28;20079;-82
2021/12/05 16:13:44;;;;;;;6.03;3.95;;;;;;;5.02;79.51;98894.34;4988618;28;20554;-81
2021/12/05 16:16:16;;;;;;;14.60;4.07;;;;;;;4.97;79.17;98887.63;4961593;28;20043;-81
2021/12/05 16:18:46;;;;;;;9.32;4.80;;;;;;;4.99;79.26;98895.41;4962491;28;20046;-81
2021/12/05 16:21:18;;;;;;;14.38;5.95;;;;;;;4.97;79.07;98903.44;4956195;28;20055;-82
2021/12/05 16:23:46;;;;;;;13.27;6.43;;;;;;;4.97;78.82;98902.59;4973100;28;20049;-80
2021/12/05 16:26:16;;;;;;;18.17;8.40;;;;;;;4.97;78.85;98908.69;4960441;28;20054;-82
2021/12/05 16:28:49;;;;;;;16.65;7.82;;;;;;;4.95;78.91;98905.34;4957537;28;20043;-82
2021/12/05 16:31:20;;;;;;;10.15;5.28;;;;;;;4.94;78.91;98898.41;4969872;28;20456;-80
2021/12/05 16:33:50;;;;;;;11.77;4.95;;;;;;;4.95;78.97;98907.97;5021383;28;20061;-81
2021/12/05 16:36:19;;;;;;;7.70;4.50;;;;;;;4.94;79.02;98903.69;5022338;28;20041;-80
2021/12/05 16:38:50;;;;;;;6.07;4.03;;;;;;;4.94;78.65;98910.75;5016650;28;20053;-81
2021/12/05 16:41:47;;;;;;;15.75;9.43;;;;;;;4.85;78.50;98914.09;5005740;28;20588;-81
2021/12/05 16:44:19;;;;;;;12.13;6.55;;;;;;;4.91;78.38;98910.97;4987715;28;20049;-81
2021/12/05 16:46:52;;;;;;;17.52;7.72;;;;;;;4.90;78.58;98915.38;5019610;28;20053;-82
2021/12/05 16:49:22;;;;;;;17.08;8.10;;;;;;;4.88;78.39;98919.94;4995882;28;20046;-80
2021/12/05 16:51:50;;;;;;;11.85;7.38;;;;;;;4.88;78.35;98914.66;5003732;28;20061;-80
2021/12/05 16:54:25;;;;;;;14.80;6.85;;;;;;;4.88;78.61;98916.47;4998562;28;20425;-81
2021/12/05 16:56:56;;;;;;;11.25;6.80;;;;;;;4.86;78.23;98911.34;5006787;28;20045;-81
2021/12/05 16:59:47;;;;;;;13.00;6.57;;;;;;;4.86;78.37;98921.88;5020644;28;20045;-81
2021/12/05 17:02:20;;;;;;;12.25;7.18;;;;;;;4.84;78.29;98922.94;5001786;28;20073;-82
2021/12/05 17:05:02;;;;;;;13.93;8.30;;;;;;;4.84;78.44;98915.91;5019844;28;20766;-82
2021/12/05 17:07:44;;;;;;;14.13;7.82;;;;;;;4.84;78.53;98920.31;4999455;28;20045;-81
2021/12/05 17:10:25;;;;;;;14.70;8.30;;;;;;;4.79;78.23;98923.31;5037148;28;20049;-82